M I D A S
Marine Information and Data Acquisition System
Tripno 1083 of the Zeeleeuw from 2006-05-15 11:44:25 to 2006-05-15 13:55:33
Back to CruiseResearch ActivitiesStationsMapUnderway DataData graphs

EquipmentUnitsComment
TimeDGPSUTC
LatitudeDGPSDM.mWGS84
LongitudeDGPSDM.mWGS84
HeadingGyrodeg 
SOGDGPSknotsSpeed over ground
COGDGPSdegCourse over ground
DepthEcho soundermeters200 kHz
Missing or incorrect values are displayed as -999
Navigation data collected by the RV Zeeleeuw from 2006-05-15 07:32:01 to 2006-05-15 14:08:45
                                                                                    Next 1000 lines
Time Latitude Longitude Heading SOG COG Depth
2006-05-15 07:32:11 51°13.598 2°56.098 125.7 0.2 133 -999
2006-05-15 07:32:15 51°13.599 2°56.099 125.6 -999 144 -999
2006-05-15 07:32:21 51°13.599 2°56.099 125.4 -999 272 -999
2006-05-15 07:32:25 51°13.599 2°56.099 125.1 -999 191 -999
2006-05-15 07:32:31 51°13.6 2°56.099 124.9 -999 139 -999
2006-05-15 07:32:36 51°13.6 2°56.099 124.8 -999 156 -999
2006-05-15 07:32:41 51°13.6 2°56.099 124.5 -999 207 -999
2006-05-15 07:32:45 51°13.6 2°56.099 124.3 -999 112 -999
2006-05-15 07:32:51 51°13.599 2°56.098 124.1 -999 154 -999
2006-05-15 07:32:56 51°13.599 2°56.098 123.8 0.1 172 -999
2006-05-15 07:33:01 51°13.599 2°56.098 123.4 -999 197 -999
2006-05-15 07:33:05 51°13.6 2°56.099 123.1 -999 259 -999
2006-05-15 07:33:11 51°13.6 2°56.099 122.8 -999 164 -999
2006-05-15 07:33:15 51°13.6 2°56.099 122.5 -999 185 -999
2006-05-15 07:33:21 51°13.6 2°56.099 122.1 -999 193 -999
2006-05-15 07:33:25 51°13.6 2°56.099 121.7 -999 212 -999
2006-05-15 07:33:31 51°13.6 2°56.099 121.4 -999 187 -999
2006-05-15 07:33:35 51°13.6 2°56.099 121.1 0.1 150 -999
2006-05-15 07:33:41 51°13.6 2°56.099 120.6 -999 200 -999
2006-05-15 07:33:45 51°13.599 2°56.099 120.2 -999 194 -999
2006-05-15 07:33:51 51°13.599 2°56.099 119.7 -999 199 -999
2006-05-15 07:33:55 51°13.599 2°56.099 119.2 -999 205 -999
2006-05-15 07:34:01 51°13.6 2°56.099 118.6 0.1 182 -999
2006-05-15 07:34:05 51°13.6 2°56.099 118 -999 176 -999
2006-05-15 07:34:11 51°13.6 2°56.099 117.3 0.1 180 -999
2006-05-15 07:34:15 51°13.6 2°56.099 116.7 -999 197 -999
2006-05-15 07:34:20 51°13.6 2°56.098 116.1 0.1 244 -999
2006-05-15 07:34:25 51°13.6 2°56.098 115.4 -999 217 -999
2006-05-15 07:34:31 51°13.6 2°56.098 114.7 0.1 192 -999
2006-05-15 07:34:35 51°13.6 2°56.099 114.3 0.1 179 -999
2006-05-15 07:34:41 51°13.6 2°56.099 113.7 0.1 193 -999
2006-05-15 07:34:45 51°13.6 2°56.099 113.1 0.1 198 -999
2006-05-15 07:34:51 51°13.6 2°56.099 112.4 -999 202 -999
2006-05-15 07:34:55 51°13.599 2°56.098 111.7 -999 185 -999
2006-05-15 07:35:01 51°13.599 2°56.098 111 0.1 200 -999
2006-05-15 07:35:05 51°13.599 2°56.098 110.3 0.1 198 -999
2006-05-15 07:35:11 51°13.599 2°56.098 109.7 0.1 194 -999
2006-05-15 07:35:16 51°13.599 2°56.098 108.8 0.1 228 -999
2006-05-15 07:35:21 51°13.599 2°56.098 108.1 0.1 186 -999
2006-05-15 07:35:25 51°13.599 2°56.098 107.4 0.1 203 -999
2006-05-15 07:35:31 51°13.598 2°56.098 106.5 0.1 209 -999
2006-05-15 07:35:35 51°13.598 2°56.098 105.7 0.1 208 -999
2006-05-15 07:35:41 51°13.598 2°56.098 104.8 0.1 211 -999
2006-05-15 07:35:45 51°13.599 2°56.098 104 0.1 239 -999
2006-05-15 07:35:51 51°13.599 2°56.098 103.3 0.1 283 -999
2006-05-15 07:35:55 51°13.599 2°56.097 102.7 0.2 297 -999
2006-05-15 07:36:01 51°13.599 2°56.096 102.4 0.4 277 -999
2006-05-15 07:36:05 51°13.599 2°56.095 102.3 0.7 283 -999
2006-05-15 07:36:11 51°13.6 2°56.091 102.2 1.2 279 -999
2006-05-15 07:36:15 51°13.6 2°56.088 102.3 1.7 282 -999
2006-05-15 07:36:20 51°13.601 2°56.083 102.5 2.2 282 4.9
2006-05-15 07:36:26 51°13.602 2°56.075 102.7 2.8 282 -999
2006-05-15 07:36:31 51°13.603 2°56.068 103 3.2 283 -999
2006-05-15 07:36:35 51°13.604 2°56.062 103.4 3.5 283 -999
2006-05-15 07:36:41 51°13.606 2°56.051 103.7 3.9 283 -999
2006-05-15 07:36:45 51°13.607 2°56.044 104.3 4.2 283 -999
2006-05-15 07:36:51 51°13.609 2°56.032 104.8 4.7 284 -999
2006-05-15 07:36:55 51°13.61 2°56.024 105.2 4.6 284 -999
2006-05-15 07:37:01 51°13.611 2°56.013 105.2 4.4 283 -999
2006-05-15 07:37:05 51°13.613 2°56.005 105.1 4.4 284 -999
2006-05-15 07:37:11 51°13.614 2°55.994 105.6 4.4 283 -999
2006-05-15 07:37:15 51°13.615 2°55.986 106.5 4.4 283 -999
2006-05-15 07:37:21 51°13.617 2°55.975 107.7 4.4 284 -999
2006-05-15 07:37:25 51°13.619 2°55.968 109.1 4.3 285 -999
2006-05-15 07:37:31 51°13.62 2°55.957 110.5 4.1 286 -999
2006-05-15 07:37:35 51°13.622 2°55.95 112.1 4 287 -999
2006-05-15 07:37:41 51°13.624 2°55.941 113.8 4 289 -999
2006-05-15 07:37:45 51°13.626 2°55.934 115.7 3.9 291 -999
2006-05-15 07:37:51 51°13.628 2°55.925 117.5 3.8 292 -999
2006-05-15 07:37:55 51°13.63 2°55.919 119.6 3.8 293 -999
2006-05-15 07:38:01 51°13.633 2°55.91 121.7 3.7 296 -999
2006-05-15 07:38:05 51°13.635 2°55.905 123.5 3.7 297 -999
2006-05-15 07:38:11 51°13.638 2°55.896 125.3 3.8 300 -999
2006-05-15 07:38:15 51°13.64 2°55.89 127 3.8 300 -999
2006-05-15 07:38:20 51°13.643 2°55.883 128.6 3.8 303 -999
2006-05-15 07:38:25 51°13.646 2°55.876 130.4 3.8 304 -999
2006-05-15 07:38:31 51°13.65 2°55.869 132.2 3.8 306 -999
2006-05-15 07:38:35 51°13.653 2°55.863 134 3.8 308 -999
2006-05-15 07:38:41 51°13.657 2°55.856 135.4 3.8 310 -999
2006-05-15 07:38:45 51°13.66 2°55.85 136.4 3.9 310 -999
2006-05-15 07:38:51 51°13.664 2°55.843 137.6 4 312 -999
2006-05-15 07:38:55 51°13.667 2°55.837 138.6 4.1 313 -999
2006-05-15 07:39:01 51°13.672 2°55.829 139.8 4.2 315 -999
2006-05-15 07:39:05 51°13.676 2°55.824 140.8 4.4 316 -999
2006-05-15 07:39:11 51°13.681 2°55.816 141.9 4.6 318 -999
2006-05-15 07:39:15 51°13.685 2°55.811 142.9 4.7 320 -999
2006-05-15 07:39:21 51°13.691 2°55.803 143.5 4.6 321 -999
2006-05-15 07:39:25 51°13.695 2°55.798 143.9 4.5 322 -999
2006-05-15 07:39:31 51°13.701 2°55.791 144.1 4.3 321 -999
2006-05-15 07:39:35 51°13.705 2°55.786 143.7 4.4 321 -999
2006-05-15 07:39:40 51°13.71 2°55.78 142.9 4.5 321 -999
2006-05-15 07:39:45 51°13.715 2°55.773 142.2 4.5 320 -999
2006-05-15 07:39:50 51°13.719 2°55.767 140.8 4.6 319 -999
2006-05-15 07:39:55 51°13.724 2°55.76 139.7 4.6 318 -999
2006-05-15 07:40:01 51°13.729 2°55.753 138.2 4.3 317 -999
2006-05-15 07:40:05 51°13.732 2°55.748 136.4 4.1 316 -999
2006-05-15 07:40:11 51°13.737 2°55.74 135.1 3.8 314 -999
2006-05-15 07:40:15 51°13.74 2°55.736 133.9 3.7 313 4.5
2006-05-15 07:40:19 51°13.742 2°55.731 132.1 3.2 312 4.8
2006-05-15 07:40:25 51°13.745 2°55.726 130.1 2.9 310 -999
2006-05-15 07:40:31 51°13.747 2°55.721 127.9 2.4 310 -999
2006-05-15 07:40:34 51°13.748 2°55.719 125.6 2 309 4.5
2006-05-15 07:40:40 51°13.749 2°55.716 123.3 1.5 306 4.6
2006-05-15 07:40:45 51°13.75 2°55.716 119.7 0.8 319 9
2006-05-15 07:40:50 51°13.751 2°55.716 115.4 0.4 335 9
2006-05-15 07:40:54 51°13.751 2°55.717 110.7 0.5 64 4.6
2006-05-15 07:40:59 51°13.751 2°55.719 105.2 1.1 86 -999
2006-05-15 07:41:05 51°13.751 2°55.723 97 1.3 81 9
2006-05-15 07:41:09 51°13.752 2°55.725 90.6 1.3 83 8.5
2006-05-15 07:41:15 51°13.752 2°55.727 87 0.8 65 8.6
2006-05-15 07:41:20 51°13.752 2°55.727 83.7 0.3 68 8.7
2006-05-15 07:41:24 51°13.753 2°55.726 80.3 0.4 281 8.6
2006-05-15 07:41:30 51°13.752 2°55.724 76.8 1 255 8.5
2006-05-15 07:41:35 51°13.752 2°55.72 73.6 1.6 256 8.6
2006-05-15 07:41:40 51°13.75 2°55.715 71.2 2 252 9.1
2006-05-15 07:41:45 51°13.749 2°55.71 69.3 2.5 249 -999
2006-05-15 07:41:51 51°13.747 2°55.704 67.3 2.6 246 -999
2006-05-15 07:41:55 51°13.746 2°55.7 66 2.4 247 -999
2006-05-15 07:42:01 51°13.745 2°55.695 65.3 2.2 245 -999
2006-05-15 07:42:05 51°13.744 2°55.692 65.2 2.1 246 -999
2006-05-15 07:42:11 51°13.742 2°55.688 64.9 1.9 247 -999
2006-05-15 07:42:15 51°13.741 2°55.685 64.4 1.8 245 -999
2006-05-15 07:42:21 51°13.74 2°55.681 63.8 1.6 245 -999
2006-05-15 07:42:25 51°13.74 2°55.678 63.2 1.5 247 4.5
2006-05-15 07:42:31 51°13.74 2°55.676 62.3 1 257 -999
2006-05-15 07:42:35 51°13.74 2°55.676 60.6 0.4 270 -999
2006-05-15 07:42:41 51°13.741 2°55.677 54.6 0.8 12 -999
2006-05-15 07:42:45 51°13.743 2°55.678 47.7 1.4 31 -999
2006-05-15 07:42:50 51°13.746 2°55.68 38.3 2.2 28 -999
2006-05-15 07:42:55 51°13.749 2°55.682 32.6 2.3 19 -999
2006-05-15 07:43:00 51°13.752 2°55.683 25.8 2.3 16 4.7
2006-05-15 07:43:05 51°13.755 2°55.684 21.2 2.3 12 8.8
2006-05-15 07:43:10 51°13.758 2°55.684 17.2 2.4 8 4.9
2006-05-15 07:43:15 51°13.761 2°55.684 14 2.4 5 4.9
2006-05-15 07:43:20 51°13.764 2°55.684 9.9 2.4 1 4.7
2006-05-15 07:43:25 51°13.768 2°55.683 5.6 2.5 357 4.6
2006-05-15 07:43:30 51°13.771 2°55.682 0.3 2.5 353 4.6
2006-05-15 07:43:34 51°13.774 2°55.681 355.8 2.5 349 4.7
2006-05-15 07:43:39 51°13.777 2°55.68 351.3 2.6 345 4.6
2006-05-15 07:43:45 51°13.782 2°55.677 347.8 2.7 341 4.5
2006-05-15 07:43:50 51°13.786 2°55.675 342.3 2.9 337 -999
2006-05-15 07:43:55 51°13.789 2°55.672 338.8 3.1 334 -999
2006-05-15 07:44:01 51°13.795 2°55.668 336.8 3.4 333 -999
2006-05-15 07:44:05 51°13.799 2°55.665 336.1 3.8 333 -999
2006-05-15 07:44:11 51°13.805 2°55.66 336 4.1 332 -999
2006-05-15 07:44:16 51°13.81 2°55.656 336.8 4.4 334 -999
2006-05-15 07:44:21 51°13.816 2°55.651 337.9 4.6 334 -999
2006-05-15 07:44:25 51°13.821 2°55.647 338.4 4.8 334 -999
2006-05-15 07:44:31 51°13.828 2°55.641 338.6 5 334 -999
2006-05-15 07:44:35 51°13.834 2°55.637 338.4 5.2 334 -999
2006-05-15 07:44:41 51°13.842 2°55.631 338.4 5.5 335 -999
2006-05-15 07:44:45 51°13.848 2°55.627 338.4 5.6 335 -999
2006-05-15 07:44:51 51°13.856 2°55.62 338.8 5.7 335 -999
2006-05-15 07:44:55 51°13.862 2°55.616 338.9 5.8 335 -999
2006-05-15 07:45:01 51°13.871 2°55.609 339.3 6 335 -999
2006-05-15 07:45:05 51°13.877 2°55.604 339.6 6.1 336 -999
2006-05-15 07:45:11 51°13.887 2°55.597 340.2 6.2 336 -999
2006-05-15 07:45:15 51°13.893 2°55.592 340.4 6.3 336 -999
2006-05-15 07:45:21 51°13.903 2°55.586 340.4 6.4 336 -999
2006-05-15 07:45:25 51°13.909 2°55.581 340.4 6.4 336 -999
2006-05-15 07:45:31 51°13.919 2°55.574 340.4 6.5 336 -999
2006-05-15 07:45:35 51°13.926 2°55.57 340.4 6.5 336 -999
2006-05-15 07:45:40 51°13.934 2°55.564 340.5 6.6 337 -999
2006-05-15 07:45:45 51°13.943 2°55.559 340.6 6.6 337 9.4
2006-05-15 07:45:51 51°13.953 2°55.552 340.7 6.6 336 -999
2006-05-15 07:45:55 51°13.96 2°55.547 340.4 6.7 336 9.4
2006-05-15 07:46:00 51°13.968 2°55.541 339.5 6.7 335 -999
2006-05-15 07:46:05 51°13.977 2°55.534 339.2 6.7 335 -999
2006-05-15 07:46:11 51°13.987 2°55.526 339 6.8 335 -999
2006-05-15 07:46:15 51°13.994 2°55.521 339 6.8 335 -999
2006-05-15 07:46:21 51°14.004 2°55.513 339 6.8 335 -999
2006-05-15 07:46:25 51°14.01 2°55.508 338.7 6.8 334 -999
2006-05-15 07:46:31 51°14.021 2°55.5 338.2 6.8 334 -999
2006-05-15 07:46:35 51°14.028 2°55.495 338 6.8 334 -999
2006-05-15 07:46:40 51°14.036 2°55.488 337.9 6.8 333 9
2006-05-15 07:46:45 51°14.045 2°55.481 337.9 6.8 334 9
2006-05-15 07:46:50 51°14.053 2°55.474 337.7 6.9 333 9.1
2006-05-15 07:46:55 51°14.061 2°55.467 337.1 6.9 333 9.1
2006-05-15 07:47:00 51°14.07 2°55.46 336.4 6.8 331 9.1
2006-05-15 07:47:05 51°14.078 2°55.453 335.8 6.9 332 9.1
2006-05-15 07:47:10 51°14.086 2°55.445 335.5 6.9 331 9.1
2006-05-15 07:47:15 51°14.095 2°55.438 335.3 6.8 331 9.1
2006-05-15 07:47:20 51°14.103 2°55.431 335.3 6.9 331 9.1
2006-05-15 07:47:25 51°14.111 2°55.423 335.3 6.9 331 9.1
2006-05-15 07:47:29 51°14.118 2°55.417 335.2 6.9 331 9.1
2006-05-15 07:47:35 51°14.128 2°55.409 335 6.9 331 9.1
2006-05-15 07:47:40 51°14.137 2°55.401 334.5 6.9 330 9.1
2006-05-15 07:47:45 51°14.145 2°55.393 333.7 6.9 329 9.1
2006-05-15 07:47:50 51°14.153 2°55.386 333 7 328 9.1
2006-05-15 07:47:55 51°14.161 2°55.377 332.6 7 328 9.1
2006-05-15 07:47:58 51°14.166 2°55.372 332.2 7.1 327 9.1
2006-05-15 07:48:04 51°14.176 2°55.361 331.9 7.2 327 9.1
2006-05-15 07:48:10 51°14.186 2°55.35 331 7.2 326 9.1
2006-05-15 07:48:14 51°14.193 2°55.343 330.3 7.3 325 9.1
2006-05-15 07:48:20 51°14.203 2°55.332 329.2 7.3 324 9.1
2006-05-15 07:48:24 51°14.21 2°55.324 328.4 7.6 323 9.1
2006-05-15 07:48:30 51°14.22 2°55.311 327.2 7.7 322 9.1
2006-05-15 07:48:35 51°14.228 2°55.3 325.9 7.8 321 9
2006-05-15 07:48:40 51°14.237 2°55.288 324.8 8 320 9.1
2006-05-15 07:48:45 51°14.245 2°55.276 323.7 8.1 318 9.1
2006-05-15 07:48:50 51°14.253 2°55.264 322.4 8.1 317 9.1
2006-05-15 07:48:55 51°14.261 2°55.251 321.1 8.2 316 9.1
2006-05-15 07:49:00 51°14.269 2°55.238 319.6 8.3 315 9.1
2006-05-15 07:49:05 51°14.277 2°55.224 318.5 8.4 314 -999
2006-05-15 07:49:11 51°14.287 2°55.208 318.3 8.5 314 -999
2006-05-15 07:49:15 51°14.294 2°55.197 318.6 8.5 314 9.3
2006-05-15 07:49:20 51°14.302 2°55.184 318.6 8.5 314 9.6
2006-05-15 07:49:25 51°14.31 2°55.17 318.1 8.6 313 9.5
2006-05-15 07:49:30 51°14.318 2°55.156 317.8 8.6 313 9.5
2006-05-15 07:49:35 51°14.326 2°55.142 317.8 8.6 313 9.6
2006-05-15 07:49:40 51°14.334 2°55.128 317.9 8.6 313 9.6
2006-05-15 07:49:45 51°14.342 2°55.114 317.5 8.6 312 -999
2006-05-15 07:49:50 51°14.35 2°55.099 316.4 8.7 312 9.6
2006-05-15 07:49:55 51°14.358 2°55.085 315.8 8.7 311 9
2006-05-15 07:50:00 51°14.366 2°55.07 315.6 8.7 311 9
2006-05-15 07:50:05 51°14.374 2°55.055 315 8.8 310 9.1
2006-05-15 07:50:10 51°14.381 2°55.04 314.5 8.8 309 9.2
2006-05-15 07:50:14 51°14.387 2°55.028 313.4 8.7 307 9.4
2006-05-15 07:50:20 51°14.395 2°55.009 311.3 8.7 305 8.8
2006-05-15 07:50:24 51°14.4 2°54.996 308.7 8.7 303 8.9
2006-05-15 07:50:29 51°14.406 2°54.979 305.4 8.7 298 8.8
2006-05-15 07:50:35 51°14.413 2°54.958 304.5 8.7 298 8.8
2006-05-15 07:50:40 51°14.418 2°54.941 303 8.7 295 9.2
2006-05-15 07:50:45 51°14.422 2°54.923 300.4 8.7 292 8.9
2006-05-15 07:50:49 51°14.425 2°54.908 297.5 8.7 290 9
2006-05-15 07:50:55 51°14.429 2°54.886 294.9 8.7 287 9.1
2006-05-15 07:51:00 51°14.432 2°54.867 293.3 8.7 287 9.2
2006-05-15 07:51:05 51°14.436 2°54.849 292.2 8.8 285 8.7
2006-05-15 07:51:10 51°14.439 2°54.829 291 8.9 284 9.2
2006-05-15 07:51:15 51°14.441 2°54.809 289.9 9.2 282 8.8
2006-05-15 07:51:20 51°14.444 2°54.788 289.3 9.4 282 9.2
2006-05-15 07:51:25 51°14.446 2°54.766 288.4 9.9 280 9.1
2006-05-15 07:51:29 51°14.448 2°54.748 287.9 10.3 280 9.3
2006-05-15 07:51:35 51°14.451 2°54.72 288.1 10.7 281 8.9
2006-05-15 07:51:40 51°14.455 2°54.696 288.7 11 281 8.7
2006-05-15 07:51:45 51°14.458 2°54.671 290.4 11.3 283 8.6
2006-05-15 07:51:49 51°14.462 2°54.651 291.8 11.6 284 9
2006-05-15 07:51:55 51°14.467 2°54.621 292.9 11.9 286 8.4
2006-05-15 07:51:59 51°14.472 2°54.6 294.4 12.1 287 9.1
2006-05-15 07:52:05 51°14.478 2°54.569 296.3 12.4 289 9
2006-05-15 07:52:10 51°14.484 2°54.543 297.5 12.6 290 9.1
2006-05-15 07:52:15 51°14.491 2°54.516 298.7 12.8 291 9
2006-05-15 07:52:20 51°14.498 2°54.489 299.3 13 291 9.2
2006-05-15 07:52:25 51°14.504 2°54.462 299.3 13.1 290 9.4
2006-05-15 07:52:30 51°14.51 2°54.434 298.5 13.3 290 8.9
2006-05-15 07:52:33 51°14.514 2°54.417 298.1 13.4 290 9.1
2006-05-15 07:52:40 51°14.522 2°54.378 297.7 13.5 289 8.9
2006-05-15 07:52:45 51°14.528 2°54.349 297.2 13.6 288 9.4
2006-05-15 07:52:50 51°14.533 2°54.32 296.1 13.7 287 9.3
2006-05-15 07:52:55 51°14.539 2°54.291 294.6 13.7 286 9.9
2006-05-15 07:53:00 51°14.544 2°54.262 293.6 13.8 285 9.1
2006-05-15 07:53:04 51°14.547 2°54.238 292.5 13.8 284 9.4
2006-05-15 07:53:09 51°14.552 2°54.208 291.7 13.8 283 8.7
2006-05-15 07:53:14 51°14.556 2°54.179 291.6 13.8 283 9.8
2006-05-15 07:53:20 51°14.561 2°54.143 291.2 13.8 283 8.9
2006-05-15 07:53:25 51°14.566 2°54.113 291.5 13.8 284 10
2006-05-15 07:53:30 51°14.571 2°54.084 292 13.8 284 9.6
2006-05-15 07:53:35 51°14.576 2°54.055 293 13.7 286 9.7
2006-05-15 07:53:40 51°14.582 2°54.026 294.3 13.7 287 9.2
2006-05-15 07:53:45 51°14.588 2°53.997 295.4 13.7 288 9
2006-05-15 07:53:50 51°14.593 2°53.968 296.3 13.7 288 8.8
2006-05-15 07:53:55 51°14.599 2°53.94 296.5 13.6 288 9.1
2006-05-15 07:54:00 51°14.605 2°53.911 296.5 13.6 288 9
2006-05-15 07:54:05 51°14.61 2°53.883 295.9 13.6 287 8.7
2006-05-15 07:54:09 51°14.614 2°53.859 294.6 13.6 286 9.1
2006-05-15 07:54:15 51°14.62 2°53.825 293.7 13.6 285 9
2006-05-15 07:54:20 51°14.625 2°53.796 292.5 13.5 284 8.9
2006-05-15 07:54:25 51°14.629 2°53.767 291 13.4 283 8.5
2006-05-15 07:54:28 51°14.631 2°53.749 290 13.4 282 8.1
2006-05-15 07:54:35 51°14.636 2°53.709 288.8 13.4 281 7.9
2006-05-15 07:54:40 51°14.64 2°53.68 287.7 13.2 280 7.7
2006-05-15 07:54:45 51°14.643 2°53.652 287.5 13.1 280 5.5
2006-05-15 07:54:49 51°14.645 2°53.629 286.9 13 279 7.1
2006-05-15 07:54:54 51°14.647 2°53.601 285.8 13 278 7.1
2006-05-15 07:55:00 51°14.649 2°53.567 284.4 13 277 7.1
2006-05-15 07:55:05 51°14.651 2°53.538 283.4 13 275 7.1
2006-05-15 07:55:10 51°14.652 2°53.509 282.7 13 275 7.1
2006-05-15 07:55:15 51°14.653 2°53.48 281.6 13.1 273 7.1
2006-05-15 07:55:20 51°14.654 2°53.451 281 13.2 273 7.2
2006-05-15 07:55:25 51°14.655 2°53.422 280.8 13.2 273 5.4
2006-05-15 07:55:30 51°14.655 2°53.393 279.5 13.2 272 7.1
2006-05-15 07:55:34 51°14.655 2°53.369 278.3 13.3 270 7.1
2006-05-15 07:55:40 51°14.654 2°53.334 276.7 13.3 268 7.1
2006-05-15 07:55:45 51°14.654 2°53.305 275.2 13.4 268 7.2
2006-05-15 07:55:49 51°14.653 2°53.281 273.9 13.4 266 7.1
2006-05-15 07:55:55 51°14.651 2°53.246 273.5 13.4 266 7.2
2006-05-15 07:56:00 51°14.65 2°53.216 272.9 13.4 266 7.1
2006-05-15 07:56:05 51°14.649 2°53.186 272.6 13.5 266 7.1
2006-05-15 07:56:09 51°14.647 2°53.163 272.6 13.4 265 7.1
2006-05-15 07:56:15 51°14.646 2°53.127 272.6 13.5 267 7.1
2006-05-15 07:56:20 51°14.645 2°53.097 273.2 13.4 266 7.1
2006-05-15 07:56:25 51°14.644 2°53.068 273.9 13.4 267 7.2
2006-05-15 07:56:29 51°14.644 2°53.044 274.9 13.5 268 7.2
2006-05-15 07:56:35 51°14.644 2°53.008 275.8 13.6 270 7.2
2006-05-15 07:56:40 51°14.644 2°52.978 277.1 13.5 270 7.2
2006-05-15 07:56:45 51°14.644 2°52.948 277.9 13.5 271 7.2
2006-05-15 07:56:49 51°14.645 2°52.924 278.8 13.6 272 5.3
2006-05-15 07:56:55 51°14.645 2°52.888 278.9 13.6 271 7.2
2006-05-15 07:56:59 51°14.644 2°52.864 277.9 13.6 269 7.3
2006-05-15 07:57:05 51°14.643 2°52.828 276.3 13.7 267 7.3
2006-05-15 07:57:09 51°14.642 2°52.803 274.4 13.7 266 5.5
2006-05-15 07:57:15 51°14.639 2°52.767 272 13.8 263 7.3
2006-05-15 07:57:19 51°14.636 2°52.743 269.2 13.8 261 7.4
2006-05-15 07:57:25 51°14.632 2°52.707 267 13.9 259 5.5
2006-05-15 07:57:30 51°14.627 2°52.677 264.9 13.9 258 7.5
2006-05-15 07:57:35 51°14.623 2°52.647 263.5 13.9 257 7.5
2006-05-15 07:57:40 51°14.619 2°52.617 263 13.9 257 7.6
2006-05-15 07:57:45 51°14.615 2°52.587 263.4 13.9 258 7.6
2006-05-15 07:57:50 51°14.611 2°52.557 263.8 14 258 7.6
2006-05-15 07:57:55 51°14.607 2°52.526 264.3 14 258 7.6
2006-05-15 07:58:00 51°14.603 2°52.496 264.1 14.1 258 7.6
2006-05-15 07:58:05 51°14.599 2°52.466 264.4 14 258 7.6
2006-05-15 07:58:09 51°14.596 2°52.441 264.8 13.9 259 7.6
2006-05-15 07:58:15 51°14.592 2°52.405 264.8 14 259 7.6
2006-05-15 07:58:20 51°14.588 2°52.375 264.8 14 260 7.6
2006-05-15 07:58:25 51°14.584 2°52.345 264.8 14 257 7.6
2006-05-15 07:58:30 51°14.58 2°52.314 264.5 14 259 7.6
2006-05-15 07:58:34 51°14.577 2°52.29 264.3 14 257 7.6
2006-05-15 07:58:40 51°14.572 2°52.254 263.9 14 258 7.6
2006-05-15 07:58:45 51°14.568 2°52.224 263.8 14 258 7.6
2006-05-15 07:58:49 51°14.565 2°52.2 263.8 14 258 7.6
2006-05-15 07:58:55 51°14.56 2°52.163 264.1 14 259 7.6
2006-05-15 07:58:59 51°14.557 2°52.139 264.5 14 259 7.7
2006-05-15 07:59:04 51°14.554 2°52.109 265.6 13.9 260 7.6
2006-05-15 07:59:10 51°14.55 2°52.072 266.3 14 260 7.6
2006-05-15 07:59:15 51°14.547 2°52.042 267 13.9 260 7.7
2006-05-15 07:59:20 51°14.544 2°52.011 267.1 14 261 7.6
2006-05-15 07:59:25 51°14.542 2°51.98 267.4 14 262 7.6
2006-05-15 07:59:30 51°14.54 2°51.95 269.5 13.9 264 7.6
2006-05-15 07:59:35 51°14.539 2°51.919 271.6 13.9 266 7.6
2006-05-15 07:59:39 51°14.538 2°51.895 273.8 13.9 268 7.6
2006-05-15 07:59:45 51°14.538 2°51.858 275.4 13.9 269 7.7
2006-05-15 07:59:50 51°14.538 2°51.827 276.3 13.9 269 7.7
2006-05-15 07:59:55 51°14.538 2°51.797 277.2 13.8 270 7.8
2006-05-15 08:00:00 51°14.538 2°51.766 277.8 13.9 270 7.8
2006-05-15 08:00:05 51°14.538 2°51.735 277.7 13.9 270 7.8
2006-05-15 08:00:08 51°14.538 2°51.717 276.8 13.9 269 7.9
2006-05-15 08:00:15 51°14.537 2°51.674 276.2 14 268 7.9
2006-05-15 08:00:19 51°14.536 2°51.649 275.4 13.9 268 7.9
2006-05-15 08:00:25 51°14.535 2°51.612 274.8 13.9 267 7.9
2006-05-15 08:00:30 51°14.533 2°51.581 273.7 14 265 7.9
2006-05-15 08:00:35 51°14.53 2°51.55 270.5 14 262 7.9
2006-05-15 08:00:40 51°14.526 2°51.52 267.3 14.1 260 7.9
2006-05-15 08:00:45 51°14.522 2°51.489 265 14.1 258 7.9
2006-05-15 08:00:49 51°14.518 2°51.465 263.1 14.1 256 8
2006-05-15 08:00:55 51°14.512 2°51.429 262 14.1 255 7.9
2006-05-15 08:01:00 51°14.506 2°51.399 259.9 14.1 254 7.9
2006-05-15 08:01:05 51°14.501 2°51.369 259.9 14.1 254 7.9
2006-05-15 08:01:09 51°14.497 2°51.345 259.1 14.1 254 7.9
2006-05-15 08:01:15 51°14.49 2°51.31 258.9 14.1 254 7.9
2006-05-15 08:01:19 51°14.486 2°51.286 258.9 14.1 254 7.9
2006-05-15 08:01:25 51°14.479 2°51.25 259.4 14.1 254 7.9
2006-05-15 08:01:30 51°14.474 2°51.22 259.8 14.1 255 7.9
2006-05-15 08:01:35 51°14.47 2°51.189 261.1 14.1 257 7.9
2006-05-15 08:01:39 51°14.467 2°51.165 263.9 14.1 258 7.9
2006-05-15 08:01:45 51°14.464 2°51.128 267 14 262 7.9
2006-05-15 08:01:50 51°14.462 2°51.097 268.6 14 262 7.9
2006-05-15 08:01:55 51°14.46 2°51.066 270.5 14 263 7.9
2006-05-15 08:02:00 51°14.458 2°51.036 271.1 14 266 7.9
2006-05-15 08:02:05 51°14.457 2°51.005 271.7 14 265 8
2006-05-15 08:02:10 51°14.455 2°50.974 272.2 14 265 8
2006-05-15 08:02:15 51°14.453 2°50.943 272.1 14 265 8.1
2006-05-15 08:02:20 51°14.451 2°50.912 271.5 14.1 264 8.1
2006-05-15 08:02:25 51°14.448 2°50.881 270 14.1 263 8.1
2006-05-15 08:02:30 51°14.444 2°50.85 268.1 14.1 260 8.1
2006-05-15 08:02:35 51°14.44 2°50.82 265.1 14.1 257 8.2
2006-05-15 08:02:40 51°14.435 2°50.79 262.3 14.1 256 8.2
2006-05-15 08:02:45 51°14.429 2°50.76 260.9 14.2 255 8.2
2006-05-15 08:02:49 51°14.425 2°50.736 259.8 14.2 254 8.3
2006-05-15 08:02:55 51°14.418 2°50.7 259.6 14.2 254 8.3
2006-05-15 08:03:00 51°14.413 2°50.669 259.3 14.2 254 8.3
2006-05-15 08:03:05 51°14.407 2°50.64 259.6 14.2 254 8.3
2006-05-15 08:03:10 51°14.402 2°50.609 259.5 14.2 254 8.3
2006-05-15 08:03:15 51°14.397 2°50.579 259.4 14.1 253 8.2
2006-05-15 08:03:20 51°14.392 2°50.549 259.4 14.2 255 8.3
2006-05-15 08:03:25 51°14.386 2°50.519 260 14.1 255 8.2
2006-05-15 08:03:30 51°14.381 2°50.489 259.7 14.2 254 8.4
2006-05-15 08:03:34 51°14.377 2°50.465 260 14.1 255 8.3
2006-05-15 08:03:40 51°14.371 2°50.428 260.3 14.2 255 8.4
2006-05-15 08:03:45 51°14.366 2°50.398 261.2 14.2 256 8.4
2006-05-15 08:03:49 51°14.363 2°50.373 261.8 14.2 258 8.4
2006-05-15 08:03:55 51°14.358 2°50.337 264.1 14.2 259 8.5
2006-05-15 08:04:00 51°14.356 2°50.306 265.6 14.1 261 8.5
2006-05-15 08:04:05 51°14.353 2°50.275 267.8 14.2 262 8.5
2006-05-15 08:04:09 51°14.352 2°50.25 269.9 14.1 264 8.5
2006-05-15 08:04:14 51°14.349 2°50.219 270 14.2 263 8.5
2006-05-15 08:04:19 51°14.347 2°50.187 271 14.2 263 8.5
2006-05-15 08:04:25 51°14.344 2°50.15 270.7 14.2 263 8.6
2006-05-15 08:04:29 51°14.343 2°50.125 270 14.2 263 8.6
2006-05-15 08:04:35 51°14.339 2°50.088 269.1 14.2 260 8.7
2006-05-15 08:04:40 51°14.335 2°50.057 267.8 14.2 261 8.7
2006-05-15 08:04:45 51°14.331 2°50.026 266 14.3 258 8.7
2006-05-15 08:04:50 51°14.325 2°49.995 263.9 14.3 257 8.7
2006-05-15 08:04:55 51°14.321 2°49.965 261.4 14.3 256 8.7
2006-05-15 08:05:00 51°14.315 2°49.935 260.2 14.3 256 8.9
2006-05-15 08:05:05 51°14.309 2°49.904 259.6 14.3 254 9
2006-05-15 08:05:09 51°14.304 2°49.88 258 14.4 251 9
2006-05-15 08:05:15 51°14.297 2°49.844 257.6 14.4 253 9
2006-05-15 08:05:20 51°14.29 2°49.814 257 14.4 251 9.1
2006-05-15 08:05:25 51°14.284 2°49.784 256.7 14.3 252 9.1
2006-05-15 08:05:30 51°14.278 2°49.753 256.9 14.4 252 9.2
2006-05-15 08:05:35 51°14.272 2°49.723 257.4 14.5 254 9.2
2006-05-15 08:05:39 51°14.268 2°49.698 258 14.5 253 9.2
2006-05-15 08:05:45 51°14.261 2°49.661 258.8 14.5 254 9.3
2006-05-15 08:05:48 51°14.258 2°49.643 261 14.4 257 9.3
2006-05-15 08:05:55 51°14.252 2°49.599 262 14.5 256 9.3
2006-05-15 08:05:59 51°14.249 2°49.574 262.9 14.4 258 9.3
2006-05-15 08:06:05 51°14.243 2°49.537 263.7 14.4 257 9.4
2006-05-15 08:06:09 51°14.24 2°49.512 264.1 14.4 258 9.5
2006-05-15 08:06:15 51°14.235 2°49.474 264.2 14.4 258 9.5
2006-05-15 08:06:19 51°14.232 2°49.449 264.1 14.4 258 9.5
2006-05-15 08:06:25 51°14.226 2°49.412 263.5 14.4 257 9.4
2006-05-15 08:06:29 51°14.223 2°49.387 262.9 14.4 256 9.5
2006-05-15 08:06:35 51°14.216 2°49.351 261.6 14.4 254 9.5
2006-05-15 08:06:40 51°14.211 2°49.32 260.4 14.4 255 9.5
2006-05-15 08:06:44 51°14.206 2°49.295 259.2 14.4 253 9.5
2006-05-15 08:06:49 51°14.2 2°49.265 258.4 14.4 252 9.5
2006-05-15 08:06:54 51°14.194 2°49.234 257.8 14.4 253 9.6
2006-05-15 08:07:00 51°14.187 2°49.198 257.1 14.4 251 9.7
2006-05-15 08:07:05 51°14.181 2°49.167 257.5 14.4 253 9.6
2006-05-15 08:07:09 51°14.176 2°49.143 257.6 14.4 253 9.6
2006-05-15 08:07:15 51°14.169 2°49.107 258.1 14.4 253 9.7
2006-05-15 08:07:20 51°14.164 2°49.076 258.3 14.4 254 9.7
2006-05-15 08:07:25 51°14.158 2°49.046 259.1 14.4 253 9.7
2006-05-15 08:07:29 51°14.154 2°49.021 260.2 14.4 256 9.7
2006-05-15 08:07:35 51°14.149 2°48.983 261.9 14.4 256 9.7
2006-05-15 08:07:39 51°14.145 2°48.959 262.4 14.4 257 9.7
2006-05-15 08:07:45 51°14.139 2°48.922 262.4 14.4 256 9.8
2006-05-15 08:07:49 51°14.135 2°48.897 262.3 14.4 256 9.9
2006-05-15 08:07:55 51°14.129 2°48.86 262 14.4 255 9.8
2006-05-15 08:08:00 51°14.124 2°48.829 261.3 14.5 255 9.7
2006-05-15 08:08:05 51°14.119 2°48.799 261.2 14.4 255 9.7
2006-05-15 08:08:09 51°14.114 2°48.774 260.5 14.4 254 9.9
2006-05-15 08:08:15 51°14.108 2°48.738 260 14.4 254 9.9
2006-05-15 08:08:20 51°14.102 2°48.707 258.9 14.4 252 9.9
2006-05-15 08:08:25 51°14.095 2°48.677 258.2 14.4 252 9.7
2006-05-15 08:08:30 51°14.089 2°48.647 257.8 14.4 253 9.6
2006-05-15 08:08:34 51°14.084 2°48.623 256.9 14.4 252 9.7
2006-05-15 08:08:39 51°14.079 2°48.592 258.2 14.4 254 9.7
2006-05-15 08:08:45 51°14.072 2°48.556 258.2 14.4 253 9.6
2006-05-15 08:08:49 51°14.068 2°48.531 259.7 14.4 255 9.8
2006-05-15 08:08:55 51°14.062 2°48.494 259.8 14.5 255 9.7
2006-05-15 08:09:00 51°14.057 2°48.463 261.3 14.4 257 9.9
2006-05-15 08:09:05 51°14.053 2°48.432 263.4 14.3 258 9.8
2006-05-15 08:09:09 51°14.05 2°48.407 264.6 14.4 259 9.8
2006-05-15 08:09:15 51°14.046 2°48.369 265.8 14.4 260 9.7
2006-05-15 08:09:20 51°14.043 2°48.339 266.5 14.3 260 9.8
2006-05-15 08:09:25 51°14.04 2°48.31 267 13.5 261 9.7
2006-05-15 08:09:30 51°14.037 2°48.282 267.7 12.8 260 9.7
2006-05-15 08:09:35 51°14.034 2°48.256 268 12.1 261 9.7
2006-05-15 08:09:40 51°14.032 2°48.232 268.8 11.5 262 9.9
2006-05-15 08:09:45 51°14.03 2°48.209 269 10.6 261 9.9
2006-05-15 08:09:50 51°14.028 2°48.187 269.1 10.2 262 10
2006-05-15 08:09:55 51°14.026 2°48.167 268.7 9.6 261 10.1
2006-05-15 08:10:00 51°14.024 2°48.148 268.6 9.1 260 10.1
2006-05-15 08:10:05 51°14.021 2°48.129 267.3 8.7 258 10.1
2006-05-15 08:10:10 51°14.019 2°48.112 266.3 8.3 259 10.1
2006-05-15 08:10:15 51°14.016 2°48.096 263.9 7.7 255 10.1
2006-05-15 08:10:20 51°14.013 2°48.081 261.6 7.3 254 10.1
2006-05-15 08:10:25 51°14.01 2°48.067 258.5 6.8 249 10.1
2006-05-15 08:10:29 51°14.007 2°48.056 255.4 6.4 250 10.1
2006-05-15 08:10:35 51°14.003 2°48.043 251.6 5.9 243 10.1
2006-05-15 08:10:40 51°14 2°48.033 248.5 5.4 246 10.1
2006-05-15 08:10:45 51°13.997 2°48.024 244 4.6 239 10.1
2006-05-15 08:10:48 51°13.995 2°48.02 237.6 4 238 10
2006-05-15 08:10:55 51°13.991 2°48.011 233.9 3.4 236 10.1
2006-05-15 08:11:00 51°13.989 2°48.007 229.9 2.9 237 10.1
2006-05-15 08:11:05 51°13.988 2°48.003 227 2.1 241 10.1
2006-05-15 08:11:09 51°13.988 2°48 225 1.7 247 10.1
2006-05-15 08:11:15 51°13.987 2°47.998 224.7 1.1 257 10
2006-05-15 08:11:19 51°13.987 2°47.996 224.9 0.9 269 10.1
2006-05-15 08:11:25 51°13.987 2°47.994 226.3 0.9 262 10.2
2006-05-15 08:11:29 51°13.987 2°47.992 227.7 1 260 10.2
2006-05-15 08:11:35 51°13.986 2°47.99 229.3 0.9 255 -999
2006-05-15 08:11:41 51°13.986 2°47.988 231.3 0.9 254 -999
2006-05-15 08:11:45 51°13.986 2°47.986 232.8 0.9 247 5.2
2006-05-15 08:11:49 51°13.985 2°47.984 233.7 0.9 249 -999
2006-05-15 08:11:55 51°13.984 2°47.982 235 1 247 -999
2006-05-15 08:12:01 51°13.984 2°47.979 236.2 1 255 -999
2006-05-15 08:12:05 51°13.983 2°47.978 236.9 1 240 -999
2006-05-15 08:12:11 51°13.983 2°47.976 237.6 1 247 -999
2006-05-15 08:12:15 51°13.982 2°47.974 238.5 1 240 4.4
2006-05-15 08:12:20 51°13.981 2°47.972 238.9 1 242 4.6
2006-05-15 08:12:25 51°13.981 2°47.97 239.5 1 240 4.5
2006-05-15 08:12:29 51°13.98 2°47.969 240.2 1 244 -999
2006-05-15 08:12:35 51°13.979 2°47.966 240.9 1 239 -999
2006-05-15 08:12:39 51°13.979 2°47.964 241.3 1.1 242 4.4
2006-05-15 08:12:44 51°13.978 2°47.963 241.8 1.1 240 10.1
2006-05-15 08:12:50 51°13.977 2°47.96 242.4 1 239 10.1
2006-05-15 08:12:55 51°13.976 2°47.958 242.9 1.1 242 10.2
2006-05-15 08:12:58 51°13.976 2°47.956 243.4 1.1 242 10.1
2006-05-15 08:13:05 51°13.975 2°47.953 243.8 1.1 239 10.1
2006-05-15 08:13:10 51°13.974 2°47.951 244.6 1.1 247 10.2
2006-05-15 08:13:15 51°13.974 2°47.949 245.3 1.1 247 10.2
2006-05-15 08:13:20 51°13.973 2°47.947 246.1 1.1 241 10.2
2006-05-15 08:13:25 51°13.972 2°47.944 247 1.1 251 10.2
2006-05-15 08:13:29 51°13.971 2°47.943 247.9 1.1 236 10.2
2006-05-15 08:13:35 51°13.971 2°47.94 248.9 1.1 248 10.2
2006-05-15 08:13:40 51°13.97 2°47.938 249.4 1.2 233 10.2
2006-05-15 08:13:45 51°13.969 2°47.935 250.4 1.1 250 10.2
2006-05-15 08:13:49 51°13.968 2°47.934 251.3 1.2 238 10.2
2006-05-15 08:13:55 51°13.968 2°47.931 252.3 1.2 247 10.1
2006-05-15 08:13:59 51°13.967 2°47.929 252.8 1.2 237 10.2
2006-05-15 08:14:05 51°13.966 2°47.926 254 1.2 251 10.2
2006-05-15 08:14:10 51°13.965 2°47.924 254.4 1.2 232 10.2
2006-05-15 08:14:15 51°13.964 2°47.922 255.6 1.2 245 10.2
2006-05-15 08:14:20 51°13.964 2°47.919 256.4 1.2 236 10.1
2006-05-15 08:14:25 51°13.963 2°47.917 257.4 1.2 244 10.2
2006-05-15 08:14:29 51°13.962 2°47.915 257.9 1.2 247 10.2
2006-05-15 08:14:35 51°13.961 2°47.912 258.9 1.2 255 10.1
2006-05-15 08:14:39 51°13.961 2°47.91 259.7 1.2 239 10.2
2006-05-15 08:14:44 51°13.96 2°47.907 260.5 1.3 237 10.2
2006-05-15 08:14:50 51°13.959 2°47.905 261 1.2 247 10.1
2006-05-15 08:14:55 51°13.958 2°47.902 261.9 1.3 236 10.1
2006-05-15 08:15:00 51°13.958 2°47.9 262.7 1.2 249 10.1
2006-05-15 08:15:05 51°13.957 2°47.897 263.7 1.3 239 10.1
2006-05-15 08:15:10 51°13.956 2°47.895 264.4 1.2 247 10.2
2006-05-15 08:15:15 51°13.955 2°47.892 265 1.3 237 10.2
2006-05-15 08:15:19 51°13.955 2°47.89 265.9 1.2 250 10.2
2006-05-15 08:15:25 51°13.954 2°47.887 266.6 1.3 240 10.1
2006-05-15 08:15:29 51°13.953 2°47.886 267.5 1.2 251 10.1
2006-05-15 08:15:35 51°13.953 2°47.883 268.1 1.3 240 10.1
2006-05-15 08:15:39 51°13.952 2°47.88 268.8 1.2 249 10.1
2006-05-15 08:15:45 51°13.951 2°47.877 269.7 1.2 246 10.2
2006-05-15 08:15:49 51°13.951 2°47.875 270.4 1.3 250 10.1
2006-05-15 08:15:55 51°13.95 2°47.872 271.2 1.3 243 10.1
2006-05-15 08:16:00 51°13.949 2°47.87 271.6 1.2 251 10.1
2006-05-15 08:16:05 51°13.949 2°47.867 272.5 1.3 244 10.2
2006-05-15 08:16:09 51°13.948 2°47.865 273 1.3 250 10.2
2006-05-15 08:16:15 51°13.947 2°47.862 273.6 1.3 244 10.1
2006-05-15 08:16:19 51°13.947 2°47.86 274.3 1.2 249 10.2
2006-05-15 08:16:25 51°13.946 2°47.857 274.7 1.3 247 10.2
2006-05-15 08:16:29 51°13.945 2°47.855 275.2 1.2 252 10.1
2006-05-15 08:16:35 51°13.944 2°47.852 275.8 1.3 245 10.1
2006-05-15 08:16:38 51°13.944 2°47.85 276.6 1.3 248 10.1
2006-05-15 08:16:45 51°13.943 2°47.847 277.2 1.3 246 10.2
2006-05-15 08:16:50 51°13.942 2°47.844 277.9 1.3 250 10.2
2006-05-15 08:16:55 51°13.942 2°47.842 278.4 1.3 246 10.2
2006-05-15 08:17:00 51°13.941 2°47.839 279.4 1.3 248 10.1
2006-05-15 08:17:05 51°13.94 2°47.836 279.5 1.2 249 10.2
2006-05-15 08:17:09 51°13.94 2°47.834 280.1 1.3 246 10.2
2006-05-15 08:17:15 51°13.939 2°47.831 280.4 1.3 250 10.2
2006-05-15 08:17:19 51°13.938 2°47.829 281.1 1.4 244 10.2
2006-05-15 08:17:25 51°13.938 2°47.826 281.6 1.3 250 10.2
2006-05-15 08:17:30 51°13.937 2°47.823 281.9 1.3 247 10.1
2006-05-15 08:17:35 51°13.936 2°47.82 282.6 1.4 247 10.2
2006-05-15 08:17:40 51°13.935 2°47.818 283 1.3 247 10.2
2006-05-15 08:17:45 51°13.935 2°47.815 283.5 1.3 250 10.2
2006-05-15 08:17:49 51°13.934 2°47.813 284.2 1.4 248 10.2
2006-05-15 08:17:55 51°13.933 2°47.81 284.5 1.4 249 10.2
2006-05-15 08:17:59 51°13.933 2°47.807 284.9 1.3 251 10.1
2006-05-15 08:18:05 51°13.932 2°47.804 285.2 1.4 247 10.2
2006-05-15 08:18:10 51°13.931 2°47.801 285.8 1.3 249 10.2
2006-05-15 08:18:15 51°13.931 2°47.798 286.1 1.3 251 10.2
2006-05-15 08:18:20 51°13.93 2°47.796 286.4 1.4 246 10.2
2006-05-15 08:18:25 51°13.929 2°47.793 286.6 1.4 245 10.3
2006-05-15 08:18:29 51°13.929 2°47.79 286.9 1.4 249 10.3
2006-05-15 08:18:35 51°13.928 2°47.787 287.3 1.4 249 10.1
2006-05-15 08:18:39 51°13.927 2°47.784 287.6 1.4 248 10.2
2006-05-15 08:18:44 51°13.926 2°47.781 287.8 1.4 250 10.3
2006-05-15 08:18:50 51°13.926 2°47.778 288 1.5 244 10.2
2006-05-15 08:18:55 51°13.925 2°47.775 288.3 1.3 251 10.3
2006-05-15 08:19:00 51°13.924 2°47.772 288.7 1.5 243 10.2
2006-05-15 08:19:05 51°13.923 2°47.769 288.7 1.4 251 10.3
2006-05-15 08:19:09 51°13.923 2°47.767 289 1.5 249 10.1
2006-05-15 08:19:15 51°13.922 2°47.763 289 1.4 252 10.2
2006-05-15 08:19:19 51°13.921 2°47.761 289 1.5 247 10.2
2006-05-15 08:19:25 51°13.921 2°47.758 289.4 1.4 252 10.1
2006-05-15 08:19:29 51°13.92 2°47.755 289.5 1.5 247 10.2
2006-05-15 08:19:35 51°13.919 2°47.752 289.5 1.4 255 10.2
2006-05-15 08:19:39 51°13.919 2°47.749 289.7 1.6 246 10.3
2006-05-15 08:19:45 51°13.918 2°47.746 289.8 1.4 256 10.2
2006-05-15 08:19:49 51°13.917 2°47.743 289.9 1.6 243 10.3
2006-05-15 08:19:55 51°13.917 2°47.74 289.7 1.4 253 10.3
2006-05-15 08:20:00 51°13.916 2°47.737 289.9 1.5 245 10.2
2006-05-15 08:20:05 51°13.915 2°47.734 289.8 1.4 252 10.2
2006-05-15 08:20:09 51°13.915 2°47.731 289.6 1.5 252 10.3
2006-05-15 08:20:15 51°13.914 2°47.727 289.5 1.4 254 10.2
2006-05-15 08:20:20 51°13.913 2°47.724 289.5 1.5 247 10.3
2006-05-15 08:20:25 51°13.913 2°47.721 289.1 1.4 253 10.2
2006-05-15 08:20:29 51°13.912 2°47.719 288.8 1.5 248 10.2
2006-05-15 08:20:35 51°13.911 2°47.715 288.7 1.4 253 10.2
2006-05-15 08:20:40 51°13.91 2°47.712 288.5 1.5 248 10.3
2006-05-15 08:20:45 51°13.91 2°47.709 288.2 1.4 255 10.2
2006-05-15 08:20:49 51°13.909 2°47.707 288 1.6 245 10.2
2006-05-15 08:20:55 51°13.908 2°47.703 287.7 1.4 255 10.3
2006-05-15 08:20:58 51°13.908 2°47.701 287.5 1.6 247 10.2
2006-05-15 08:21:05 51°13.907 2°47.697 287.2 1.4 253 10.3
2006-05-15 08:21:09 51°13.906 2°47.694 286.8 1.5 249 10.3
2006-05-15 08:21:15 51°13.905 2°47.691 286.8 1.4 251 10.2
2006-05-15 08:21:20 51°13.904 2°47.687 286.5 1.5 251 10.3
2006-05-15 08:21:25 51°13.904 2°47.684 286.1 1.5 253 10.2
2006-05-15 08:21:29 51°13.903 2°47.682 285.3 1.5 248 10.3
2006-05-15 08:21:35 51°13.902 2°47.678 285.4 1.4 257 10.3
2006-05-15 08:21:39 51°13.902 2°47.676 285.1 1.6 247 10.2
2006-05-15 08:21:45 51°13.901 2°47.672 284.5 1.5 249 10.2
2006-05-15 08:21:50 51°13.9 2°47.669 284.5 1.5 250 10.3
2006-05-15 08:21:55 51°13.899 2°47.666 283.9 1.5 248 10.3
2006-05-15 08:22:00 51°13.899 2°47.662 283.7 1.5 251 10.2
2006-05-15 08:22:05 51°13.898 2°47.659 283.4 1.6 249 10.2
2006-05-15 08:22:09 51°13.897 2°47.657 282.8 1.5 251 10.3
2006-05-15 08:22:13 51°13.897 2°47.654 282.6 1.6 248 10.3
2006-05-15 08:22:20 51°13.896 2°47.65 282.1 1.5 253 10.1
2006-05-15 08:22:25 51°13.895 2°47.646 281.8 1.6 248 10.3
2006-05-15 08:22:30 51°13.894 2°47.643 281.4 1.5 250 10.2
2006-05-15 08:22:35 51°13.893 2°47.64 280.8 1.6 248 10.1
2006-05-15 08:22:39 51°13.893 2°47.638 280.4 1.5 250 10.2
2006-05-15 08:22:45 51°13.892 2°47.634 280.1 1.5 249 10.2
2006-05-15 08:22:49 51°13.891 2°47.631 279.9 1.6 249 10.3
2006-05-15 08:22:55 51°13.891 2°47.627 279.4 1.6 248 10.1
2006-05-15 08:23:00 51°13.89 2°47.624 279.1 1.5 250 10.3
2006-05-15 08:23:05 51°13.889 2°47.621 278.7 1.5 254 10.3
2006-05-15 08:23:10 51°13.888 2°47.618 278.3 1.6 248 10.1
2006-05-15 08:23:15 51°13.887 2°47.614 278.1 1.5 251 10.3
2006-05-15 08:23:19 51°13.887 2°47.612 277.6 1.6 250 10.2
2006-05-15 08:23:25 51°13.886 2°47.608 277.2 1.6 251 10.3
2006-05-15 08:23:30 51°13.885 2°47.604 276.8 1.5 250 10.3
2006-05-15 08:23:35 51°13.884 2°47.601 276.6 1.6 253 10.1
2006-05-15 08:23:40 51°13.883 2°47.598 276 1.6 248 10.3
2006-05-15 08:23:45 51°13.883 2°47.595 275.8 1.6 254 10.3
2006-05-15 08:23:49 51°13.882 2°47.592 275.4 1.6 246 10.3
2006-05-15 08:23:55 51°13.881 2°47.588 275.1 1.6 252 10.3
2006-05-15 08:23:59 51°13.881 2°47.585 274.9 1.6 249 10.3
2006-05-15 08:24:05 51°13.88 2°47.581 274.3 1.7 248 10.3
2006-05-15 08:24:09 51°13.879 2°47.578 274.1 1.8 255 10.2
2006-05-15 08:24:14 51°13.878 2°47.574 274.3 1.9 253 10.3
2006-05-15 08:24:19 51°13.878 2°47.569 274.2 2.1 257 10.3
2006-05-15 08:24:24 51°13.877 2°47.564 274.4 2.4 257 10.3
2006-05-15 08:24:30 51°13.876 2°47.557 275 2.7 257 10.2
2006-05-15 08:24:35 51°13.875 2°47.55 276.3 3.1 261 10.3
2006-05-15 08:24:40 51°13.875 2°47.541 277.9 3.5 263 10.1
2006-05-15 08:24:45 51°13.875 2°47.531 280.6 4.3 267 10.1
2006-05-15 08:24:50 51°13.875 2°47.52 285.5 4.7 271 10.2
2006-05-15 08:24:55 51°13.876 2°47.508 290 5.4 277 10.2
2006-05-15 08:25:00 51°13.878 2°47.496 296.1 5.6 282 10.2
2006-05-15 08:25:05 51°13.881 2°47.484 302.8 5.9 289 10.1
2006-05-15 08:25:09 51°13.884 2°47.474 309.3 6 294 10.2
2006-05-15 08:25:15 51°13.89 2°47.461 315.7 6.1 299 10.2
2006-05-15 08:25:20 51°13.895 2°47.45 322.3 6.2 307 10.2
2006-05-15 08:25:24 51°13.9 2°47.442 328.7 6.1 313 10.2
2006-05-15 08:25:29 51°13.906 2°47.434 334.5 5.9 319 10.2
2006-05-15 08:25:35 51°13.914 2°47.426 340.2 5.8 322 10
2006-05-15 08:25:40 51°13.921 2°47.42 345.6 5.6 330 10.2
2006-05-15 08:25:45 51°13.928 2°47.415 351.2 5.5 335 10.2
2006-05-15 08:25:50 51°13.935 2°47.412 356.5 5.4 340 10.2
2006-05-15 08:25:54 51°13.941 2°47.41 2.1 5.2 347 10.1
2006-05-15 08:25:59 51°13.948 2°47.408 7.8 5.1 354 10.1
2006-05-15 08:26:05 51°13.956 2°47.409 13.4 5 -999 10.1
2006-05-15 08:26:09 51°13.961 2°47.41 18.3 4.9 4 10.1
2006-05-15 08:26:15 51°13.969 2°47.412 23 4.9 11 10.1
2006-05-15 08:26:19 51°13.974 2°47.415 27.6 4.9 16 10
2006-05-15 08:26:25 51°13.982 2°47.421 32 5 23 9.9
2006-05-15 08:26:30 51°13.988 2°47.426 36.2 5 27 10.2
2006-05-15 08:26:35 51°13.994 2°47.433 40.6 5.1 35 9.9
2006-05-15 08:26:39 51°13.998 2°47.439 45.1 5.1 40 10.1
2006-05-15 08:26:45 51°14.004 2°47.449 49.8 5.2 47 10.1
2006-05-15 08:26:49 51°14.007 2°47.457 54.4 5.3 52 10.1
2006-05-15 08:26:55 51°14.012 2°47.469 59.3 5.3 56 10.1
2006-05-15 08:27:00 51°14.015 2°47.479 63.8 5.2 64 10.1
2006-05-15 08:27:05 51°14.017 2°47.49 68.3 5.1 69 10
2006-05-15 08:27:09 51°14.019 2°47.498 73.3 4.9 74 10
2006-05-15 08:27:14 51°14.019 2°47.509 76.7 4.9 82 10.1
2006-05-15 08:27:20 51°14.02 2°47.521 80.7 4.8 83 10
2006-05-15 08:27:25 51°14.02 2°47.532 84.6 4.8 90 10.2
2006-05-15 08:27:29 51°14.02 2°47.54 87.3 4.8 93 10.2
2006-05-15 08:27:35 51°14.019 2°47.553 89.8 4.7 95 10.1
2006-05-15 08:27:40 51°14.018 2°47.563 92.1 4.7 99 10.2
2006-05-15 08:27:45 51°14.016 2°47.572 93.6 4.4 100 10.2
2006-05-15 08:27:50 51°14.015 2°47.582 96.3 4.4 106 10.2
2006-05-15 08:27:55 51°14.013 2°47.59 98 4.2 107 10.3
2006-05-15 08:28:00 51°14.011 2°47.599 99.4 4.1 110 10.3
2006-05-15 08:28:05 51°14.009 2°47.607 101.2 4 111 10.3
2006-05-15 08:28:09 51°14.007 2°47.613 102.1 3.9 112 10.3
2006-05-15 08:28:15 51°14.005 2°47.623 103 3.9 113 10.3
2006-05-15 08:28:20 51°14.003 2°47.631 103 3.9 116 10.3
2006-05-15 08:28:25 51°14.001 2°47.638 103.1 3.7 113 10.3
2006-05-15 08:28:30 51°13.998 2°47.646 102.8 3.7 114 10.2
2006-05-15 08:28:35 51°13.997 2°47.653 102 3.6 112 10.3
2006-05-15 08:28:40 51°13.994 2°47.66 101.2 3.6 113 10.4
2006-05-15 08:28:45 51°13.993 2°47.667 99.9 3.4 108 10.3
2006-05-15 08:28:50 51°13.991 2°47.675 98.8 3.4 112 10.2
2006-05-15 08:28:55 51°13.99 2°47.681 97.1 3.2 108 10.1
2006-05-15 08:28:59 51°13.989 2°47.687 95.4 3.2 108 10.3
2006-05-15 08:29:05 51°13.987 2°47.694 93.9 3.1 107 10.3
2006-05-15 08:29:10 51°13.986 2°47.701 93.2 3.1 106 10.3
2006-05-15 08:29:15 51°13.984 2°47.707 94.5 3.1 113 10.3
2006-05-15 08:29:20 51°13.983 2°47.713 97.5 3 110 10.2
2006-05-15 08:29:25 51°13.98 2°47.719 101.3 3.2 123 10.3
2006-05-15 08:29:30 51°13.978 2°47.725 104.1 3 117 10.2
2006-05-15 08:29:35 51°13.975 2°47.731 106.6 3.1 125 10.2
2006-05-15 08:29:39 51°13.974 2°47.735 108.4 3.1 125 10.3
2006-05-15 08:29:45 51°13.97 2°47.742 110.2 3.2 128 10.3
2006-05-15 08:29:50 51°13.967 2°47.747 111.7 3.2 130 10.3
2006-05-15 08:29:55 51°13.964 2°47.752 113.1 3.2 131 10.3
2006-05-15 08:30:00 51°13.961 2°47.757 114.6 3.2 136 10.3
2006-05-15 08:30:05 51°13.958 2°47.762 115.6 3.2 135 10.3
2006-05-15 08:30:09 51°13.955 2°47.766 116.9 3.2 137 10.3
2006-05-15 08:30:15 51°13.952 2°47.772 118.3 3.2 137 10.4
2006-05-15 08:30:20 51°13.948 2°47.776 118.6 3.1 138 10.3
2006-05-15 08:30:25 51°13.945 2°47.781 119.3 3.1 136 10.3
2006-05-15 08:30:30 51°13.942 2°47.786 118.9 3.2 139 10.3
2006-05-15 08:30:35 51°13.939 2°47.79 118.3 3.1 137 10.3
2006-05-15 08:30:39 51°13.936 2°47.794 117.4 3.1 136 10.2
2006-05-15 08:30:45 51°13.932 2°47.799 116.7 3.1 137 10.3
2006-05-15 08:30:49 51°13.93 2°47.803 116.1 3 135 10.3
2006-05-15 08:30:55 51°13.926 2°47.809 116.1 3 136 10.3
2006-05-15 08:30:59 51°13.923 2°47.812 116.8 3 138 10.3
2006-05-15 08:31:05 51°13.92 2°47.818 116.8 3 138 10.3
2006-05-15 08:31:08 51°13.918 2°47.82 116.3 2.9 135 10.3
2006-05-15 08:31:15 51°13.914 2°47.827 114.4 2.8 134 10.3
2006-05-15 08:31:19 51°13.912 2°47.83 111.7 2.7 131 10.4
2006-05-15 08:31:25 51°13.91 2°47.836 108.5 2.7 128 10.4
2006-05-15 08:31:30 51°13.908 2°47.841 105.9 2.6 126 10.4
2006-05-15 08:31:35 51°13.905 2°47.845 104.6 2.6 127 10.4
2006-05-15 08:31:40 51°13.904 2°47.85 103.5 2.5 123 10.4
2006-05-15 08:31:45 51°13.902 2°47.855 102.8 2.6 124 10.3
2006-05-15 08:31:50 51°13.9 2°47.86 102.5 2.5 119 10.4
2006-05-15 08:31:55 51°13.898 2°47.865 102 2.6 123 10.3
2006-05-15 08:31:59 51°13.897 2°47.868 101.5 2.5 119 10.3
2006-05-15 08:32:05 51°13.895 2°47.874 100.8 2.6 122 10.4
2006-05-15 08:32:09 51°13.893 2°47.878 99.7 2.5 115 10.3
2006-05-15 08:32:15 51°13.891 2°47.884 98.8 2.5 120 10.4
2006-05-15 08:32:20 51°13.89 2°47.889 97.5 2.4 111 10.2
2006-05-15 08:32:25 51°13.889 2°47.894 96.4 2.4 114 10.2
2006-05-15 08:32:29 51°13.888 2°47.898 94.9 2.4 113 10.2
2006-05-15 08:32:35 51°13.887 2°47.904 93.2 2.4 109 10.3
2006-05-15 08:32:40 51°13.886 2°47.908 91.8 2.3 104 10.2
2006-05-15 08:32:45 51°13.885 2°47.913 89.9 2.3 105 10.3
2006-05-15 08:32:49 51°13.885 2°47.917 88 2.3 101 10.3
2006-05-15 08:32:54 51°13.884 2°47.923 86.3 2.3 97 10.3
2006-05-15 08:33:00 51°13.884 2°47.929 84.6 2.4 95 10.3
2006-05-15 08:33:05 51°13.884 2°47.934 82.6 2.4 92 10.4
2006-05-15 08:33:10 51°13.884 2°47.94 80.7 2.4 89 10.3
2006-05-15 08:33:15 51°13.884 2°47.945 78.8 2.4 85 10.3
2006-05-15 08:33:20 51°13.885 2°47.951 77.2 2.5 85 10.3
2006-05-15 08:33:25 51°13.886 2°47.956 75.4 2.5 77 10.3
2006-05-15 08:33:29 51°13.886 2°47.96 73.1 2.6 79 10.2
2006-05-15 08:33:35 51°13.887 2°47.967 71.3 2.6 73 10.3
2006-05-15 08:33:40 51°13.889 2°47.972 69.3 2.5 72 10.2
2006-05-15 08:33:45 51°13.89 2°47.977 67.1 2.6 64 10.3
2006-05-15 08:33:49 51°13.891 2°47.982 65 2.7 68 10.2
2006-05-15 08:33:55 51°13.893 2°47.988 63.7 2.7 60 10.4
2006-05-15 08:33:58 51°13.895 2°47.991 63 2.7 62 10.2
2006-05-15 08:34:05 51°13.897 2°47.999 62.6 2.8 60 10.3
2006-05-15 08:34:09 51°13.898 2°48.003 62.6 2.8 63 10.3
2006-05-15 08:34:15 51°13.901 2°48.01 62.8 2.8 62 10.3
2006-05-15 08:34:19 51°13.902 2°48.014 63 2.9 62 10.3
2006-05-15 08:34:25 51°13.904 2°48.021 63.1 2.9 63 10.3
2006-05-15 08:34:30 51°13.906 2°48.027 63.3 2.9 62 10.3
2006-05-15 08:34:35 51°13.908 2°48.033 63.6 2.9 65 10.3
2006-05-15 08:34:39 51°13.91 2°48.037 63.8 3 63 10.3
2006-05-15 08:34:45 51°13.912 2°48.044 63.9 2.9 63 10.3
2006-05-15 08:34:50 51°13.914 2°48.05 64.1 3 63 10.3
2006-05-15 08:34:55 51°13.916 2°48.056 64.3 3 64 10.2
2006-05-15 08:35:00 51°13.918 2°48.062 64.5 3 62 10.2
2006-05-15 08:35:05 51°13.92 2°48.068 64.5 3 64 10.3
2006-05-15 08:35:10 51°13.921 2°48.074 64.8 3 63 10.3
2006-05-15 08:35:15 51°13.923 2°48.08 65.1 3 63 10.3
2006-05-15 08:35:20 51°13.925 2°48.085 64.9 3 63 10.3
2006-05-15 08:35:25 51°13.927 2°48.091 65 3 62 10.3
2006-05-15 08:35:30 51°13.929 2°48.097 64.9 3 64 10.3
2006-05-15 08:35:35 51°13.931 2°48.103 64.9 3 63 10.3
2006-05-15 08:35:40 51°13.933 2°48.109 64.7 3 63 10.3
2006-05-15 08:35:45 51°13.935 2°48.115 64.5 3.1 64 10.3
2006-05-15 08:35:50 51°13.937 2°48.122 64.5 3.1 62 10.3
2006-05-15 08:35:55 51°13.939 2°48.127 64.2 3 62 10.3
2006-05-15 08:36:00 51°13.941 2°48.133 64 3 61 10.2
2006-05-15 08:36:05 51°13.943 2°48.139 64 3 61 10.3
2006-05-15 08:36:09 51°13.944 2°48.144 63.8 3 63 10.3
2006-05-15 08:36:15 51°13.946 2°48.151 64.1 3.1 63 10.3
2006-05-15 08:36:20 51°13.948 2°48.157 64.2 3.1 63 10.2
2006-05-15 08:36:25 51°13.95 2°48.163 64.4 3 63 10.3
2006-05-15 08:36:30 51°13.952 2°48.169 64.3 3 63 10.3
2006-05-15 08:36:35 51°13.954 2°48.175 64.4 3 65 10.3
2006-05-15 08:36:40 51°13.956 2°48.181 64.5 3 62 10.3
2006-05-15 08:36:44 51°13.957 2°48.186 64.3 3 62 10.3
2006-05-15 08:36:50 51°13.96 2°48.193 64.1 3 63 10.2
2006-05-15 08:36:55 51°13.962 2°48.199 64 3 64 10.3
2006-05-15 08:37:00 51°13.964 2°48.205 63.8 3 60 10.3
2006-05-15 08:37:05 51°13.966 2°48.21 63.5 3 62 10.3
2006-05-15 08:37:10 51°13.968 2°48.216 63.3 3 62 10.3
2006-05-15 08:37:15 51°13.97 2°48.222 63.1 3 61 10.2
2006-05-15 08:37:20 51°13.972 2°48.228 62.9 2.9 62 10.4
2006-05-15 08:37:25 51°13.974 2°48.233 62.9 3 61 10.3
2006-05-15 08:37:29 51°13.975 2°48.238 62.9 2.9 61 10.4
2006-05-15 08:37:35 51°13.977 2°48.244 62.7 2.9 61 10.2
2006-05-15 08:37:39 51°13.979 2°48.249 62.6 2.9 62 10.3
2006-05-15 08:37:45 51°13.981 2°48.256 62.6 2.9 62 10.3
2006-05-15 08:37:50 51°13.984 2°48.261 62.6 2.9 60 10.3
2006-05-15 08:37:55 51°13.986 2°48.267 62.7 2.9 62 10.3
2006-05-15 08:38:00 51°13.988 2°48.272 62.9 2.9 61 10.4
2006-05-15 08:38:04 51°13.989 2°48.277 63 2.9 64 10.3
2006-05-15 08:38:09 51°13.991 2°48.282 63.1 2.9 58 10.2
2006-05-15 08:38:15 51°13.993 2°48.289 63.1 2.9 64 10.3
2006-05-15 08:38:19 51°13.995 2°48.293 63.5 2.9 59 10.3
2006-05-15 08:38:25 51°13.997 2°48.3 63.4 2.9 64 10.3
2006-05-15 08:38:29 51°13.999 2°48.304 63.4 2.9 58 10.3
2006-05-15 08:38:35 51°14.001 2°48.311 63.2 2.9 64 10.3
2006-05-15 08:38:40 51°14.003 2°48.316 63.3 2.9 58 10.2
2006-05-15 08:38:44 51°14.004 2°48.321 63.1 2.9 62 10.2
2006-05-15 08:38:50 51°14.007 2°48.327 63.1 2.9 59 10.3
2006-05-15 08:38:55 51°14.009 2°48.333 63.1 2.9 60 10.3
2006-05-15 08:39:00 51°14.011 2°48.338 63.3 2.9 62 10.2
2006-05-15 08:39:05 51°14.013 2°48.344 63.4 2.9 62 10.3
2006-05-15 08:39:08 51°14.014 2°48.347 63.5 2.9 61 10.4
2006-05-15 08:39:15 51°14.017 2°48.355 63.5 2.9 57 10.3
2006-05-15 08:39:19 51°14.018 2°48.36 63.6 2.9 62 10.3
2006-05-15 08:39:25 51°14.021 2°48.366 63.6 2.8 59 10.3
2006-05-15 08:39:29 51°14.022 2°48.371 63.5 2.9 63 10.4
2006-05-15 08:39:34 51°14.024 2°48.376 63.6 2.9 57 10.3
2006-05-15 08:39:40 51°14.026 2°48.383 63.6 2.9 63 10.3
2006-05-15 08:39:45 51°14.028 2°48.389 63.8 2.9 60 10.4
2006-05-15 08:39:50 51°14.03 2°48.395 63.7 2.9 63 10.4
2006-05-15 08:39:55 51°14.032 2°48.4 63.9 2.9 61 10.3
2006-05-15 08:39:58 51°14.033 2°48.404 63.9 2.9 63 10.3
2006-05-15 08:40:05 51°14.036 2°48.412 63.9 3 59 10.4
2006-05-15 08:40:10 51°14.038 2°48.418 64.1 2.9 62 10.4
2006-05-15 08:40:13 51°14.039 2°48.421 64.1 2.9 59 10.4
2006-05-15 08:40:20 51°14.042 2°48.429 64 3 64 10.4
2006-05-15 08:40:25 51°14.044 2°48.435 64.1 2.9 58 10.4
2006-05-15 08:40:29 51°14.045 2°48.439 63.5 2.9 63 10.4
2006-05-15 08:40:35 51°14.048 2°48.446 63.1 2.9 57 10.4
2006-05-15 08:40:39 51°14.049 2°48.45 62.2 2.9 62 10.4
2006-05-15 08:40:45 51°14.052 2°48.456 61.9 2.9 55 10.4
2006-05-15 08:40:50 51°14.054 2°48.462 61.1 2.9 60 10.4
2006-05-15 08:40:55 51°14.056 2°48.467 60.3 2.9 55 10.3
2006-05-15 08:40:59 51°14.058 2°48.471 59.5 2.9 55 10.4
2006-05-15 08:41:05 51°14.061 2°48.477 58.7 2.9 52 10.3
2006-05-15 08:41:10 51°14.063 2°48.483 58.3 2.9 55 10.4
2006-05-15 08:41:15 51°14.066 2°48.487 57.8 2.9 50 10.4
2006-05-15 08:41:19 51°14.068 2°48.491 57.3 2.9 54 10.3
2006-05-15 08:41:25 51°14.071 2°48.497 56.9 2.9 51 10.4
2006-05-15 08:41:30 51°14.073 2°48.502 56.6 2.9 51 10.4
2006-05-15 08:41:34 51°14.076 2°48.506 56.4 2.9 50 10.5
2006-05-15 08:41:39 51°14.078 2°48.511 56.1 2.8 50 10.4
2006-05-15 08:41:45 51°14.081 2°48.517 56 2.8 47 10.5
2006-05-15 08:41:49 51°14.083 2°48.521 56 2.9 48 10.3
2006-05-15 08:41:55 51°14.086 2°48.526 56 2.9 48 10.4
2006-05-15 08:42:00 51°14.089 2°48.531 56 2.8 49 10.4
2006-05-15 08:42:05 51°14.091 2°48.536 56 2.8 49 10.3
2006-05-15 08:42:10 51°14.094 2°48.541 56.2 2.9 50 10.3
2006-05-15 08:42:15 51°14.097 2°48.545 56.4 2.8 50 10.3
2006-05-15 08:42:19 51°14.099 2°48.549 56.6 2.8 50 10.4
2006-05-15 08:42:25 51°14.102 2°48.555 56.8 2.8 49 10.3
2006-05-15 08:42:29 51°14.104 2°48.559 56.6 2.8 51 10.4
2006-05-15 08:42:35 51°14.107 2°48.564 56.8 2.8 49 10.3
2006-05-15 08:42:39 51°14.109 2°48.568 56.8 2.8 48 10.4
2006-05-15 08:42:45 51°14.112 2°48.574 56.6 2.8 48 10.3
2006-05-15 08:42:50 51°14.114 2°48.578 56.6 2.8 49 10.4
2006-05-15 08:42:55 51°14.117 2°48.583 56.6 2.8 48 10.4
2006-05-15 08:43:00 51°14.12 2°48.588 56.6 2.8 51 10.4
2006-05-15 08:43:05 51°14.122 2°48.592 56.5 2.8 48 10.4
2006-05-15 08:43:09 51°14.124 2°48.596 56.4 2.8 50 10.5
2006-05-15 08:43:15 51°14.127 2°48.601 56.5 2.8 51 10.4
2006-05-15 08:43:19 51°14.129 2°48.605 56.6 2.7 47 10.4
2006-05-15 08:43:25 51°14.132 2°48.611 56.5 2.8 49 10.4
2006-05-15 08:43:30 51°14.135 2°48.615 56.7 2.8 48 10.3
2006-05-15 08:43:35 51°14.137 2°48.62 56.7 2.7 49 10.4
2006-05-15 08:43:39 51°14.139 2°48.623 56.6 2.7 50 10.4
2006-05-15 08:43:45 51°14.142 2°48.629 56.6 2.7 50 10.4
2006-05-15 08:43:50 51°14.145 2°48.633 56.6 2.7 48 10.4
2006-05-15 08:43:55 51°14.147 2°48.638 56.6 2.7 50 10.4
2006-05-15 08:44:00 51°14.15 2°48.642 56.5 2.7 46 10.5
2006-05-15 08:44:05 51°14.153 2°48.647 56.5 2.8 50 10.5
2006-05-15 08:44:09 51°14.155 2°48.65 56.3 2.7 46 10.5
2006-05-15 08:44:15 51°14.158 2°48.656 56.4 2.7 48 10.4
2006-05-15 08:44:18 51°14.159 2°48.658 56.4 2.7 49 10.4
2006-05-15 08:44:25 51°14.163 2°48.665 56.3 2.7 47 10.4
2006-05-15 08:44:29 51°14.165 2°48.668 56.1 2.7 47 10.4
2006-05-15 08:44:34 51°14.167 2°48.673 56.3 2.8 49 10.4
2006-05-15 08:44:40 51°14.17 2°48.678 56.4 2.8 47 10.3
2006-05-15 08:44:45 51°14.173 2°48.683 56.4 2.7 46 10.3
2006-05-15 08:44:49 51°14.175 2°48.686 56.2 2.7 50 10.3
2006-05-15 08:44:54 51°14.177 2°48.69 56.4 2.7 48 10.4
2006-05-15 08:45:00 51°14.18 2°48.696 56.4 2.7 47 10.4
2006-05-15 08:45:05 51°14.183 2°48.7 56.3 2.7 48 10.5
2006-05-15 08:45:10 51°14.185 2°48.705 56.2 2.7 47 10.5
2006-05-15 08:45:15 51°14.188 2°48.709 56.3 2.7 49 10.5
2006-05-15 08:45:20 51°14.19 2°48.714 56.4 2.7 47 10.5
2006-05-15 08:45:25 51°14.193 2°48.718 56.4 2.7 50 10.5
2006-05-15 08:45:29 51°14.195 2°48.722 56.8 2.7 47 10.4
2006-05-15 08:45:35 51°14.198 2°48.727 57.2 2.7 51 10.5
2006-05-15 08:45:40 51°14.2 2°48.732 57.3 2.7 47 10.5
2006-05-15 08:45:45 51°14.203 2°48.736 57.4 2.7 48 10.5
2006-05-15 08:45:50 51°14.205 2°48.741 57.8 2.7 49 10.5
2006-05-15 08:45:55 51°14.207 2°48.745 58 2.7 48 10.5
2006-05-15 08:46:00 51°14.21 2°48.749 58 2.7 51 10.5
2006-05-15 08:46:05 51°14.212 2°48.754 58 2.7 51 10.5
2006-05-15 08:46:09 51°14.214 2°48.758 58 2.7 50 10.5
2006-05-15 08:46:15 51°14.217 2°48.763 58 2.7 51 10.5
2006-05-15 08:46:20 51°14.219 2°48.767 58.1 2.7 49 10.6
2006-05-15 08:46:25 51°14.221 2°48.772 57.9 2.7 51 10.5
2006-05-15 08:46:29 51°14.223 2°48.776 58.1 2.7 49 10.5
2006-05-15 08:46:35 51°14.226 2°48.781 58 2.7 51 10.5
2006-05-15 08:46:40 51°14.228 2°48.785 58 2.7 50 10.5
2006-05-15 08:46:45 51°14.231 2°48.79 58 2.6 49 10.5
2006-05-15 08:46:50 51°14.233 2°48.794 57.9 2.7 49 10.5
2006-05-15 08:46:55 51°14.236 2°48.799 57.9 2.7 49 10.5
2006-05-15 08:47:00 51°14.238 2°48.803 57.8 2.7 50 10.5
2006-05-15 08:47:05 51°14.241 2°48.808 57.9 2.7 49 10.6
2006-05-15 08:47:10 51°14.243 2°48.813 57.9 2.7 50 10.5
2006-05-15 08:47:15 51°14.245 2°48.817 58 2.7 50 10.5
2006-05-15 08:47:19 51°14.247 2°48.821 58.1 2.7 51 10.5
2006-05-15 08:47:25 51°14.25 2°48.826 58.2 2.6 50 10.5
2006-05-15 08:47:29 51°14.252 2°48.83 58.3 2.7 53 10.6
2006-05-15 08:47:35 51°14.255 2°48.835 58.5 2.6 51 10.6
2006-05-15 08:47:39 51°14.256 2°48.839 58.7 2.7 51 10.6
2006-05-15 08:47:45 51°14.259 2°48.845 58.7 2.7 52 10.6
2006-05-15 08:47:50 51°14.262 2°48.849 58.9 2.7 51 10.6
2006-05-15 08:47:55 51°14.264 2°48.854 59.1 2.6 53 10.6
2006-05-15 08:48:00 51°14.266 2°48.858 59.2 2.7 51 10.6
2006-05-15 08:48:05 51°14.268 2°48.863 59.4 2.7 55 10.7
2006-05-15 08:48:09 51°14.27 2°48.867 59.5 2.7 50 10.6
2006-05-15 08:48:14 51°14.272 2°48.871 59.5 2.6 51 10.6
2006-05-15 08:48:19 51°14.275 2°48.876 59.5 2.7 53 10.6
2006-05-15 08:48:25 51°14.277 2°48.882 59.6 2.7 53 10.5
2006-05-15 08:48:29 51°14.279 2°48.885 59.6 2.7 52 10.6
2006-05-15 08:48:35 51°14.282 2°48.891 59.6 2.7 53 10.6
2006-05-15 08:48:40 51°14.284 2°48.896 59.6 2.7 51 10.6
2006-05-15 08:48:45 51°14.286 2°48.9 59.7 2.7 52 10.6
2006-05-15 08:48:49 51°14.288 2°48.904 59.8 2.7 53 10.6
2006-05-15 08:48:55 51°14.291 2°48.91 60.2 2.7 53 10.6
2006-05-15 08:49:00 51°14.293 2°48.915 60.3 2.7 53 10.6
2006-05-15 08:49:05 51°14.295 2°48.919 60.4 2.7 51 10.6
2006-05-15 08:49:09 51°14.297 2°48.924 60.6 2.7 57 10.6
2006-05-15 08:49:15 51°14.299 2°48.929 60.9 2.7 51 10.6
2006-05-15 08:49:19 51°14.301 2°48.933 61 2.7 58 10.6
2006-05-15 08:49:25 51°14.303 2°48.939 61.5 2.7 54 10.6
2006-05-15 08:49:30 51°14.306 2°48.944 61.9 2.7 57 10.6
2006-05-15 08:49:34 51°14.307 2°48.948 62.2 2.7 59 10.6
2006-05-15 08:49:40 51°14.309 2°48.954 62.4 2.7 56 10.6
2006-05-15 08:49:45 51°14.312 2°48.959 62.5 2.7 57 10.6
2006-05-15 08:49:50 51°14.313 2°48.964 62.8 2.7 57 10.7
2006-05-15 08:49:55 51°14.315 2°48.969 63 2.7 57 10.6
2006-05-15 08:50:00 51°14.317 2°48.974 63.1 2.7 58 10.6
2006-05-15 08:50:05 51°14.319 2°48.979 63.1 2.6 58 10.7
2006-05-15 08:50:09 51°14.321 2°48.983 63.1 2.7 59 10.6
2006-05-15 08:50:15 51°14.323 2°48.989 63.3 2.7 61 10.6
2006-05-15 08:50:20 51°14.325 2°48.994 63.3 2.7 56 10.7
2006-05-15 08:50:25 51°14.327 2°48.999 63.2 2.7 59 10.7
2006-05-15 08:50:29 51°14.329 2°49.003 63.2 2.7 57 10.6
2006-05-15 08:50:35 51°14.331 2°49.009 63.1 2.7 59 10.7
2006-05-15 08:50:39 51°14.332 2°49.013 63.1 2.7 58 10.7
2006-05-15 08:50:45 51°14.335 2°49.019 63.1 2.7 58 10.6
2006-05-15 08:50:48 51°14.336 2°49.022 63.1 2.7 58 10.7
2006-05-15 08:50:55 51°14.339 2°49.029 63.1 2.7 60 10.8
2006-05-15 08:50:59 51°14.34 2°49.033 63.1 2.7 57 10.7
2006-05-15 08:51:05 51°14.343 2°49.039 63.1 2.7 59 10.7
2006-05-15 08:51:10 51°14.345 2°49.044 62.8 2.7 56 10.7
2006-05-15 08:51:15 51°14.346 2°49.049 62.9 2.7 58 10.8
2006-05-15 08:51:18 51°14.348 2°49.052 62.7 2.6 57 10.7
2006-05-15 08:51:25 51°14.35 2°49.059 62.8 2.7 60 10.8
2006-05-15 08:51:30 51°14.352 2°49.064 62.5 2.7 56 10.8
2006-05-15 08:51:35 51°14.354 2°49.069 62.6 2.7 59 10.8
2006-05-15 08:51:40 51°14.356 2°49.074 62.7 2.7 57 10.8
2006-05-15 08:51:45 51°14.358 2°49.079 62.5 2.7 60 10.7
2006-05-15 08:51:49 51°14.36 2°49.082 62.6 2.7 52 10.7
2006-05-15 08:51:55 51°14.362 2°49.089 62.5 2.7 61 10.8
2006-05-15 08:52:00 51°14.364 2°49.093 62.4 2.7 52 10.8
2006-05-15 08:52:05 51°14.366 2°49.098 62 2.7 60 10.8
2006-05-15 08:52:09 51°14.368 2°49.102 61.5 2.7 50 10.8
2006-05-15 08:52:15 51°14.371 2°49.107 60.6 2.7 58 10.9
2006-05-15 08:52:20 51°14.373 2°49.112 59.6 2.7 52 10.8
2006-05-15 08:52:25 51°14.376 2°49.117 58.9 2.8 51 10.8
2006-05-15 08:52:30 51°14.378 2°49.121 58 2.7 49 10.8
2006-05-15 08:52:35 51°14.38 2°49.125 57.1 2.7 49 10.8
2006-05-15 08:52:40 51°14.383 2°49.13 56.3 2.6 47 10.8
2006-05-15 08:52:44 51°14.385 2°49.133 55.6 2.7 46 10.8
2006-05-15 08:52:50 51°14.388 2°49.138 54.7 2.7 45 10.8
2006-05-15 08:52:55 51°14.391 2°49.142 54.2 2.7 43 10.9
2006-05-15 08:53:00 51°14.394 2°49.146 53.6 2.6 45 10.8
2006-05-15 08:53:05 51°14.396 2°49.15 53.2 2.7 43 10.8
2006-05-15 08:53:09 51°14.399 2°49.153 52.7 2.7 40 10.8
2006-05-15 08:53:15 51°14.402 2°49.158 52.3 2.7 42 10.8
2006-05-15 08:53:20 51°14.405 2°49.162 52 2.7 37 10.8
2006-05-15 08:53:25 51°14.408 2°49.165 51.5 2.7 39 10.8
2006-05-15 08:53:30 51°14.411 2°49.169 51.5 2.8 38 10.8
2006-05-15 08:53:35 51°14.414 2°49.173 51.4 2.7 39 10.8
2006-05-15 08:53:40 51°14.417 2°49.177 51.3 2.7 39 10.8
2006-05-15 08:53:45 51°14.42 2°49.181 51.3 2.7 39 10.8
2006-05-15 08:53:50 51°14.423 2°49.184 51.3 2.7 36 10.8
2006-05-15 08:53:55 51°14.426 2°49.188 51.2 2.7 37 10.9
2006-05-15 08:54:00 51°14.429 2°49.192 51.4 2.7 41 10.8
2006-05-15 08:54:05 51°14.432 2°49.195 51.5 2.7 36 10.8
2006-05-15 08:54:10 51°14.434 2°49.199 51.6 2.7 41 10.8
2006-05-15 08:54:15 51°14.437 2°49.203 51.6 2.7 36 10.9
2006-05-15 08:54:20 51°14.44 2°49.207 51.7 2.6 42 10.9
2006-05-15 08:54:25 51°14.443 2°49.211 51.9 2.6 38 10.9
2006-05-15 08:54:30 51°14.446 2°49.215 52.2 2.6 44 11
2006-05-15 08:54:35 51°14.449 2°49.218 52.5 2.7 40 11
2006-05-15 08:54:39 51°14.451 2°49.222 52.5 2.6 43 10.9
2006-05-15 08:54:45 51°14.454 2°49.226 52.5 2.6 36 10.9
2006-05-15 08:54:49 51°14.456 2°49.229 52.2 2.6 43 10.9
2006-05-15 08:54:55 51°14.46 2°49.234 52.2 2.7 38 10.9
2006-05-15 08:55:00 51°14.463 2°49.237 52.2 2.6 42 10.9
2006-05-15 08:55:05 51°14.466 2°49.241 52.1 2.7 39 10.9
2006-05-15 08:55:09 51°14.468 2°49.244 52.1 2.7 41 11
2006-05-15 08:55:14 51°14.471 2°49.248 51.9 2.7 39 10.9
2006-05-15 08:55:20 51°14.474 2°49.253 52.3 2.7 40 10.9